Time,TemperatureF,DewpointF,PressureIn,WindDirection,WindDirectionDegrees,WindSpeedMPH,WindSpeedGustMPH,Humidity,HourlyPrecipIn,Conditions,Clouds,dailyrainin,SoftwareType,DateUTC
2013-02-07 00:01:00,24.0,7.0,-100.00,NNW,335,6.0,7.0,47,-99.99,,,-99.99,,2013-02-07 07:01:00,
2013-02-07 00:11:00,25.0,7.0,-100.00,NNW,335,8.0,12.0,45,-99.99,,,-99.99,,2013-02-07 07:11:00,
2013-02-07 00:21:00,25.0,6.0,-100.00,NNW,335,9.0,11.0,45,-99.99,,,-99.99,,2013-02-07 07:21:00,
2013-02-07 00:31:00,25.0,6.0,-100.00,NNW,335,7.0,11.0,45,-99.99,,,-99.99,,2013-02-07 07:31:00,
2013-02-07 00:41:00,24.0,6.0,-100.00,NW,320,4.0,9.0,45,-99.99,,,-99.99,,2013-02-07 07:41:00,
2013-02-07 00:52:00,18.0,3.0,-100.00,SSW,210,7.0,9.0,49,-99.99,,,-99.99,,2013-02-07 07:52:00,
2013-02-07 01:01:00,17.0,2.0,-100.00,SW,215,11.0,12.0,53,-99.99,,,-99.99,,2013-02-07 08:01:00,
2013-02-07 01:21:00,17.0,4.0,-100.00,SW,230,3.0,9.0,53,-99.99,,,-99.99,,2013-02-07 08:21:00,
2013-02-07 01:31:00,17.0,4.0,-100.00,SW,230,4.0,6.0,53,-99.99,,,-99.99,,2013-02-07 08:31:00,
2013-02-07 01:41:00,17.0,4.0,-100.00,WSW,250,4.0,6.0,54,-99.99,,,-99.99,,2013-02-07 08:41:00,
2013-02-07 01:52:00,17.0,3.0,-100.00,SSE,155,4.0,5.0,54,-99.99,,,-99.99,,2013-02-07 08:52:00,
2013-02-07 02:01:00,16.0,3.0,-100.00,SW,225,5.0,7.0,55,-99.99,,,-99.99,,2013-02-07 09:01:00,
2013-02-07 02:11:00,18.0,4.0,-100.00,West,275,0.0,5.0,54,-99.99,,,-99.99,,2013-02-07 09:11:00,
2013-02-07 02:21:00,18.0,4.0,-100.00,SW,215,7.0,9.0,53,-99.99,,,-99.99,,2013-02-07 09:21:00,
2013-02-07 02:31:00,16.0,2.0,-100.00,SSW,205,9.0,10.0,53,-99.99,,,-99.99,,2013-02-07 09:31:00,
2013-02-07 02:41:00,16.0,3.0,-100.00,SSW,210,8.0,11.0,53,-99.99,,,-99.99,,2013-02-07 09:41:00,
2013-02-07 02:51:00,17.0,3.0,-100.00,SW,225,7.0,8.0,53,-99.99,,,-99.99,,2013-02-07 09:51:00,
2013-02-07 03:01:00,17.0,3.0,-100.00,South,180,2.0,7.0,52,-99.99,,,-99.99,,2013-02-07 10:01:00,
2013-02-07 03:11:00,16.0,2.0,-100.00,South,185,4.0,6.0,53,-99.99,,,-99.99,,2013-02-07 10:11:00,
2013-02-07 03:21:00,16.0,2.0,-100.00,SSE,155,5.0,10.0,53,-99.99,,,-99.99,,2013-02-07 10:21:00,
2013-02-07 03:31:00,14.0,1.0,-100.00,South,170,6.0,9.0,55,-99.99,,,-99.99,,2013-02-07 10:31:00,
2013-02-07 03:41:00,13.0,0.0,-100.00,SE,140,4.0,9.0,55,-99.99,,,-99.99,,2013-02-07 10:41:00,
2013-02-07 03:51:00,14.0,1.0,-100.00,SSW,210,14.0,17.0,55,-99.99,,,-99.99,,2013-02-07 10:51:00,
2013-02-07 04:01:00,13.0,0.0,-100.00,South,190,11.0,16.0,56,-99.99,,,-99.99,,2013-02-07 11:01:00,
2013-02-07 04:11:00,13.0,1.0,-100.00,South,190,11.0,15.0,57,-99.99,,,-99.99,,2013-02-07 11:11:00,
2013-02-07 04:22:00,12.0,0.0,-100.00,SE,145,7.0,11.0,59,-99.99,,,-99.99,,2013-02-07 11:22:00,
2013-02-07 04:32:00,11.0,1.0,-100.00,SE,145,9.0,12.0,60,-99.99,,,-99.99,,2013-02-07 11:32:00,
2013-02-07 04:43:00,11.0,0.0,-100.00,SE,135,9.0,11.0,62,-99.99,,,-99.99,,2013-02-07 11:43:00,
2013-02-07 04:52:00,9.0,0.0,-100.00,SSE,160,10.0,13.0,63,-99.99,,,-99.99,,2013-02-07 11:52:00,
2013-02-07 05:01:00,11.0,1.0,-100.00,South,185,14.0,17.0,62,-99.99,,,-99.99,,2013-02-07 12:01:00,
2013-02-07 05:11:00,12.0,1.0,-100.00,South,175,14.0,20.0,61,-99.99,,,-99.99,,2013-02-07 12:11:00,
2013-02-07 05:21:00,11.0,1.0,-100.00,South,175,16.0,19.0,61,-99.99,,,-99.99,,2013-02-07 12:21:00,
2013-02-07 05:32:00,11.0,0.0,-100.00,SSE,165,10.0,19.0,61,-99.99,,,-99.99,,2013-02-07 12:32:00,
2013-02-07 05:41:00,10.0,0.0,-100.00,SSE,165,11.0,16.0,61,-99.99,,,-99.99,,2013-02-07 12:41:00,
2013-02-07 05:52:00,10.0,-1.0,-100.00,SSE,160,11.0,15.0,61,-99.99,,,-99.99,,2013-02-07 12:52:00,
2013-02-07 06:02:00,11.0,0.0,-100.00,SSE,155,7.0,13.0,60,-99.99,,,-99.99,,2013-02-07 13:02:00,
2013-02-07 06:11:00,10.0,-1.0,-100.00,ESE,120,9.0,13.0,60,-99.99,,,-99.99,,2013-02-07 13:11:00,
2013-02-07 06:21:00,10.0,-1.0,-100.00,East,95,7.0,11.0,59,-99.99,,,-99.99,,2013-02-07 13:21:00,
2013-02-07 06:31:00,12.0,0.0,-100.00,SSE,165,6.0,9.0,57,-99.99,,,-99.99,,2013-02-07 13:31:00,
2013-02-07 06:41:00,15.0,1.0,-100.00,SSW,205,11.0,14.0,53,-99.99,,,-99.99,,2013-02-07 13:41:00,
2013-02-07 06:51:00,14.0,0.0,-100.00,SE,140,6.0,12.0,53,-99.99,,,-99.99,,2013-02-07 13:51:00,
2013-02-07 07:01:00,13.0,0.0,-100.00,SSW,195,7.0,11.0,54,-99.99,,,-99.99,,2013-02-07 14:01:00,
2013-02-07 07:11:00,14.0,0.0,-100.00,SW,215,12.0,15.0,53,-99.99,,,-99.99,,2013-02-07 14:11:00,
2013-02-07 07:21:00,15.0,0.0,-100.00,SSW,210,12.0,15.0,51,-99.99,,,-99.99,,2013-02-07 14:21:00,
2013-02-07 07:31:00,15.0,0.0,-100.00,SSW,195,9.0,15.0,51,-99.99,,,-99.99,,2013-02-07 14:31:00,
2013-02-07 07:41:00,15.0,0.0,-100.00,SSW,200,12.0,17.0,51,-99.99,,,-99.99,,2013-02-07 14:41:00,
2013-02-07 07:52:00,16.0,1.0,-100.00,SSW,200,17.0,21.0,51,-99.99,,,-99.99,,2013-02-07 14:52:00,
2013-02-07 08:01:00,15.0,2.0,-100.00,South,190,17.0,21.0,54,-99.99,,,-99.99,,2013-02-07 15:01:00,
2013-02-07 08:11:00,16.0,2.0,-100.00,SSW,200,18.0,23.0,54,-99.99,,,-99.99,,2013-02-07 15:11:00,
2013-02-07 08:21:00,17.0,3.0,-100.00,South,190,19.0,27.0,53,-99.99,,,-99.99,,2013-02-07 15:21:00,
2013-02-07 08:31:00,18.0,4.0,-100.00,SSW,195,24.0,29.0,52,-99.99,,,-99.99,,2013-02-07 15:31:00,
2013-02-07 08:41:00,17.0,4.0,-100.00,SE,145,15.0,31.0,54,-99.99,,,-99.99,,2013-02-07 15:41:00,
2013-02-07 08:52:00,18.0,4.0,-100.00,South,175,21.0,26.0,53,-99.99,,,-99.99,,2013-02-07 15:52:00,
2013-02-07 09:01:00,17.0,4.0,-100.00,South,180,20.0,26.0,54,-99.99,,,-99.99,,2013-02-07 16:01:00,
2013-02-07 09:11:00,18.0,4.0,-100.00,South,185,21.0,26.0,54,-99.99,,,-99.99,,2013-02-07 16:11:00,
2013-02-07 09:21:00,20.0,6.0,-100.00,South,180,22.0,27.0,52,-99.99,,,-99.99,,2013-02-07 16:21:00,
2013-02-07 09:31:00,24.0,6.0,-100.00,SSW,210,23.0,32.0,46,-99.99,,,-99.99,,2013-02-07 16:31:00,
2013-02-07 09:41:00,23.0,5.0,-100.00,SSW,205,23.0,29.0,46,-99.99,,,-99.99,,2013-02-07 16:41:00,
2013-02-07 09:52:00,23.0,6.0,-100.00,SSW,205,26.0,30.0,47,-99.99,,,-99.99,,2013-02-07 16:52:00,
2013-02-07 10:01:00,24.0,7.0,-100.00,SSW,205,24.0,31.0,47,-99.99,,,-99.99,,2013-02-07 17:01:00,
2013-02-07 10:11:00,25.0,7.0,-100.00,SSW,205,27.0,33.0,46,-99.99,,,-99.99,,2013-02-07 17:11:00,
2013-02-07 10:21:00,27.0,8.0,-100.00,SSW,205,28.0,34.0,44,-99.99,,,-99.99,,2013-02-07 17:21:00,
2013-02-07 10:31:00,27.0,8.0,-100.00,SSW,205,27.0,35.0,43,-99.99,,,-99.99,,2013-02-07 17:31:00,
2013-02-07 10:41:00,27.0,7.0,-100.00,SSW,210,29.0,37.0,42,-99.99,,,-99.99,,2013-02-07 17:41:00,
2013-02-07 10:52:00,27.0,8.0,-100.00,SSW,200,26.0,37.0,42,-99.99,,,-99.99,,2013-02-07 17:52:00,
2013-02-07 11:01:00,28.0,8.0,-100.00,SSW,210,29.0,34.0,42,-99.99,,,-99.99,,2013-02-07 18:01:00,
2013-02-07 11:11:00,29.0,8.0,-100.00,SSW,200,29.0,35.0,41,-99.99,,,-99.99,,2013-02-07 18:11:00,
2013-02-07 11:22:00,28.0,8.0,-100.00,SSW,200,29.0,34.0,41,-99.99,,,-99.99,,2013-02-07 18:22:00,
2013-02-07 11:31:00,29.0,8.0,-100.00,SSW,200,27.0,34.0,42,-99.99,,,-99.99,,2013-02-07 18:31:00,
2013-02-07 11:41:00,29.0,9.0,-100.00,SSW,210,30.0,36.0,42,-99.99,,,-99.99,,2013-02-07 18:41:00,
2013-02-07 11:51:00,30.0,9.0,-100.00,SSW,205,26.0,34.0,41,-99.99,,,-99.99,,2013-02-07 18:51:00,
2013-02-07 12:01:00,30.0,10.0,-100.00,SSW,205,30.0,36.0,41,-99.99,,,-99.99,,2013-02-07 19:01:00,
2013-02-07 12:11:00,32.0,10.0,-100.00,SSW,205,29.0,36.0,39,-99.99,,,-99.99,,2013-02-07 19:11:00,
2013-02-07 12:21:00,31.0,9.0,-100.00,SSW,205,32.0,38.0,39,-99.99,,,-99.99,,2013-02-07 19:21:00,
2013-02-07 12:31:00,32.0,10.0,-100.00,SSW,195,30.0,37.0,39,-99.99,,,-99.99,,2013-02-07 19:31:00,
2013-02-07 12:41:00,33.0,11.0,-100.00,SSW,205,27.0,35.0,40,-99.99,,,-99.99,,2013-02-07 19:41:00,
2013-02-07 12:51:00,32.0,11.0,-100.00,SSW,205,34.0,42.0,40,-99.99,,,-99.99,,2013-02-07 19:51:00,
2013-02-07 13:01:00,34.0,11.0,-100.00,SSW,195,32.0,40.0,39,-99.99,,,-99.99,,2013-02-07 20:01:00,
2013-02-07 13:11:00,35.0,12.0,-100.00,SSW,205,25.0,36.0,38,-99.99,,,-99.99,,2013-02-07 20:11:00,
2013-02-07 13:21:00,35.0,11.0,-100.00,South,180,22.0,32.0,37,-99.99,,,-99.99,,2013-02-07 20:21:00,
2013-02-07 13:31:00,36.0,9.0,-100.00,SW,215,21.0,29.0,32,-99.99,,,-99.99,,2013-02-07 20:31:00,
2013-02-07 13:41:00,35.0,8.0,-100.00,South,185,21.0,31.0,31,-99.99,,,-99.99,,2013-02-07 20:41:00,
2013-02-07 13:52:00,36.0,8.0,-100.00,South,190,16.0,24.0,31,-99.99,,,-99.99,,2013-02-07 20:52:00,
2013-02-07 14:01:00,35.0,8.0,-100.00,SSW,210,19.0,26.0,32,-99.99,,,-99.99,,2013-02-07 21:01:00,
2013-02-07 14:11:00,35.0,8.0,-100.00,SW,215,21.0,27.0,31,-99.99,,,-99.99,,2013-02-07 21:11:00,
2013-02-07 14:21:00,34.0,7.0,-100.00,SW,220,20.0,27.0,31,-99.99,,,-99.99,,2013-02-07 21:21:00,
2013-02-07 14:31:00,34.0,7.0,-100.00,SW,215,16.0,26.0,31,-99.99,,,-99.99,,2013-02-07 21:31:00,
2013-02-07 14:41:00,34.0,7.0,-100.00,SSW,210,21.0,27.0,31,-99.99,,,-99.99,,2013-02-07 21:41:00,
2013-02-07 14:51:00,36.0,8.0,-100.00,SW,215,23.0,30.0,29,-99.99,,,-99.99,,2013-02-07 21:51:00,
2013-02-07 15:01:00,36.0,9.0,-100.00,SW,215,22.0,30.0,31,-99.99,,,-99.99,,2013-02-07 22:01:00,
2013-02-07 15:11:00,36.0,9.0,-100.00,SW,225,22.0,28.0,31,-99.99,,,-99.99,,2013-02-07 22:11:00,
2013-02-07 15:21:00,36.0,9.0,-100.00,SW,215,23.0,29.0,32,-99.99,,,-99.99,,2013-02-07 22:21:00,
2013-02-07 15:31:00,36.0,9.0,-100.00,SSW,210,21.0,27.0,31,-99.99,,,-99.99,,2013-02-07 22:31:00,
2013-02-07 15:42:00,36.0,9.0,-100.00,SW,215,21.0,26.0,31,-99.99,,,-99.99,,2013-02-07 22:42:00,
2013-02-07 15:51:00,36.0,8.0,-100.00,SW,220,20.0,26.0,31,-99.99,,,-99.99,,2013-02-07 22:51:00,
2013-02-07 16:01:00,36.0,9.0,-100.00,SW,220,19.0,24.0,31,-99.99,,,-99.99,,2013-02-07 23:01:00,
2013-02-07 16:11:00,36.0,9.0,-100.00,SW,215,19.0,24.0,31,-99.99,,,-99.99,,2013-02-07 23:11:00,
2013-02-07 16:21:00,36.0,9.0,-100.00,SW,220,21.0,25.0,31,-99.99,,,-99.99,,2013-02-07 23:21:00,
2013-02-07 16:31:00,35.0,9.0,-100.00,SW,220,19.0,24.0,32,-99.99,,,-99.99,,2013-02-07 23:31:00,
2013-02-07 16:41:00,35.0,9.0,-100.00,SSW,210,18.0,23.0,32,-99.99,,,-99.99,,2013-02-07 23:41:00,
2013-02-07 16:52:00,35.0,9.0,-100.00,SSW,210,17.0,23.0,33,-99.99,,,-99.99,,2013-02-07 23:52:00,
2013-02-07 17:01:00,34.0,8.0,-100.00,SSW,205,17.0,23.0,33,-99.99,,,-99.99,,2013-02-08 00:01:00,
2013-02-07 17:11:00,34.0,8.0,-100.00,SW,215,17.0,21.0,33,-99.99,,,-99.99,,2013-02-08 00:11:00,
2013-02-07 17:21:00,33.0,8.0,-100.00,SSW,210,16.0,19.0,34,-99.99,,,-99.99,,2013-02-08 00:21:00,
2013-02-07 17:31:00,32.0,7.0,-100.00,SSW,195,11.0,17.0,34,-99.99,,,-99.99,,2013-02-08 00:31:00,
2013-02-07 17:41:00,31.0,7.0,-100.00,SSW,205,15.0,19.0,35,-99.99,,,-99.99,,2013-02-08 00:41:00,
2013-02-07 17:52:00,30.0,7.0,-100.00,SSW,205,15.0,18.0,36,-99.99,,,-99.99,,2013-02-08 00:52:00,
2013-02-07 18:01:00,29.0,7.0,-100.00,South,185,12.0,16.0,37,-99.99,,,-99.99,,2013-02-08 01:01:00,
2013-02-07 18:11:00,28.0,6.0,-100.00,SSE,150,9.0,16.0,38,-99.99,,,-99.99,,2013-02-08 01:11:00,
2013-02-07 18:21:00,28.0,8.0,-100.00,SE,135,13.0,17.0,41,-99.99,,,-99.99,,2013-02-08 01:21:00,
2013-02-07 18:31:00,29.0,8.0,-100.00,SE,145,12.0,22.0,41,-99.99,,,-99.99,,2013-02-08 01:31:00,
2013-02-07 18:41:00,29.0,9.0,-100.00,ESE,115,17.0,21.0,42,-99.99,,,-99.99,,2013-02-08 01:41:00,
2013-02-07 18:51:00,29.0,9.0,-100.00,ESE,115,14.0,24.0,43,-99.99,,,-99.99,,2013-02-08 01:51:00,
2013-02-07 19:01:00,28.0,9.0,-100.00,SE,130,15.0,21.0,46,-99.99,,,-99.99,,2013-02-08 02:01:00,
2013-02-07 19:11:00,27.0,10.0,-100.00,ESE,115,15.0,22.0,47,-99.99,,,-99.99,,2013-02-08 02:11:00,
2013-02-07 19:21:00,27.0,10.0,-100.00,ESE,115,15.0,22.0,47,-99.99,,,-99.99,,2013-02-08 02:21:00,
2013-02-07 19:31:00,26.0,9.0,-100.00,SE,135,11.0,17.0,49,-99.99,,,-99.99,,2013-02-08 02:31:00,
2013-02-07 19:42:00,26.0,10.0,-100.00,SSE,155,11.0,17.0,50,-99.99,,,-99.99,,2013-02-08 02:42:00,
2013-02-07 19:52:00,26.0,10.0,-100.00,South,180,16.0,21.0,50,-99.99,,,-99.99,,2013-02-08 02:52:00,
2013-02-07 20:01:00,24.0,9.0,-100.00,SE,130,13.0,20.0,52,-99.99,,,-99.99,,2013-02-08 03:01:00,
2013-02-07 20:11:00,24.0,9.0,-100.00,SE,130,13.0,16.0,52,-99.99,,,-99.99,,2013-02-08 03:11:00,
2013-02-07 20:22:00,24.0,10.0,-100.00,SE,130,14.0,19.0,53,-99.99,,,-99.99,,2013-02-08 03:22:00,
2013-02-07 20:31:00,25.0,10.0,-100.00,SE,125,14.0,23.0,53,-99.99,,,-99.99,,2013-02-08 03:31:00,
2013-02-07 20:41:00,25.0,10.0,-100.00,SE,125,16.0,23.0,53,-99.99,,,-99.99,,2013-02-08 03:41:00,
2013-02-07 20:51:00,25.0,10.0,-100.00,SE,140,16.0,24.0,53,-99.99,,,-99.99,,2013-02-08 03:51:00,
2013-02-07 21:01:00,24.0,10.0,-100.00,SSE,150,19.0,27.0,54,-99.99,,,-99.99,,2013-02-08 04:01:00,
2013-02-07 21:11:00,24.0,10.0,-100.00,SE,145,17.0,25.0,53,-99.99,,,-99.99,,2013-02-08 04:11:00,
2013-02-07 21:21:00,24.0,10.0,-100.00,SSE,160,14.0,20.0,54,-99.99,,,-99.99,,2013-02-08 04:21:00,
2013-02-07 21:31:00,24.0,10.0,-100.00,SE,140,13.0,26.0,54,-99.99,,,-99.99,,2013-02-08 04:31:00,
2013-02-07 21:41:00,24.0,9.0,-100.00,ESE,120,16.0,20.0,54,-99.99,,,-99.99,,2013-02-08 04:41:00,
2013-02-07 21:51:00,24.0,9.0,-100.00,East,100,14.0,23.0,54,-99.99,,,-99.99,,2013-02-08 04:51:00,
2013-02-07 22:01:00,23.0,9.0,-100.00,SE,125,18.0,22.0,55,-99.99,,,-99.99,,2013-02-08 05:01:00,
2013-02-07 22:11:00,23.0,9.0,-100.00,ESE,110,17.0,22.0,55,-99.99,,,-99.99,,2013-02-08 05:11:00,
2013-02-07 22:21:00,22.0,9.0,-100.00,East,100,17.0,23.0,56,-99.99,,,-99.99,,2013-02-08 05:21:00,
2013-02-07 22:31:00,22.0,9.0,-100.00,East,95,17.0,24.0,57,-99.99,,,-99.99,,2013-02-08 05:31:00,
2013-02-07 22:41:00,22.0,9.0,-100.00,East,85,17.0,26.0,56,-99.99,,,-99.99,,2013-02-08 05:41:00,
2013-02-07 22:52:00,23.0,9.0,-100.00,ESE,115,15.0,22.0,54,-99.99,,,-99.99,,2013-02-08 05:52:00,
2013-02-07 23:01:00,23.0,9.0,-100.00,SE,125,11.0,20.0,54,-99.99,,,-99.99,,2013-02-08 06:01:00,
2013-02-07 23:11:00,22.0,9.0,-100.00,ESE,115,10.0,19.0,55,-99.99,,,-99.99,,2013-02-08 06:11:00,
2013-02-07 23:21:00,22.0,9.0,-100.00,East,100,14.0,17.0,54,-99.99,,,-99.99,,2013-02-08 06:21:00,
2013-02-07 23:31:00,23.0,8.0,-100.00,ESE,120,14.0,24.0,53,-99.99,,,-99.99,,2013-02-08 06:31:00,
2013-02-07 23:51:00,23.0,8.0,-100.00,SE,125,15.0,24.0,51,-99.99,,,-99.99,,2013-02-08 06:51:00,